createdAt,value
2019-02-15T00:01:07.640Z,7.28
2019-02-15T00:03:48.633Z,7.28
2019-02-15T00:06:33.132Z,6.62
2019-02-15T00:09:11.305Z,7.08
2019-02-15T00:11:56.078Z,5.65
2019-02-15T00:14:38.208Z,6.25
2019-02-15T00:17:19.236Z,6.90
2019-02-15T00:20:03.008Z,6.25
2019-02-15T00:22:43.340Z,7.72
2019-02-15T00:25:24.384Z,8.10
2019-02-15T00:28:08.375Z,7.50
2019-02-15T00:30:47.742Z,7.37
2019-02-15T00:33:28.711Z,7.33
2019-02-15T00:36:15.092Z,6.70
2019-02-15T00:38:57.952Z,6.75
2019-02-15T00:41:35.942Z,7.12
2019-02-15T00:44:20.185Z,7.00
2019-02-15T00:46:59.725Z,6.35
2019-02-15T00:49:39.647Z,6.58
2019-02-15T00:52:27.376Z,7.15
2019-02-15T00:55:26.431Z,6.72
2019-02-15T00:58:07.847Z,7.05
2019-02-15T01:00:47.419Z,7.00
2019-02-15T01:03:43.849Z,6.45
2019-02-15T01:06:26.921Z,6.92
2019-02-15T01:09:14.249Z,6.78
2019-02-15T01:12:08.349Z,6.80
2019-02-15T01:14:49.228Z,5.90
2019-02-15T01:17:28.216Z,6.62
2019-02-15T01:20:10.766Z,6.08
2019-02-15T01:22:53.954Z,6.05
2019-02-15T01:25:34.732Z,6.10
2019-02-15T01:28:23.654Z,5.05
2019-02-15T01:31:10.355Z,6.37
2019-02-15T01:33:54.760Z,7.10
2019-02-15T01:36:47.624Z,6.03
2019-02-15T01:39:30.757Z,5.85
2019-02-15T01:42:31.221Z,5.58
2019-02-15T01:45:13.062Z,5.37
2019-02-15T01:47:53.486Z,6.30
2019-02-15T01:50:39.250Z,5.00
2019-02-15T01:53:23.740Z,5.28
2019-02-15T01:56:08.825Z,4.65
2019-02-15T01:58:47.256Z,5.42
2019-02-15T02:01:33.506Z,5.78
2019-02-15T02:04:13.332Z,4.72
2019-02-15T02:06:55.861Z,4.78
2019-02-15T02:09:37.709Z,4.03
2019-02-15T02:12:20.756Z,4.60
2019-02-15T02:15:05.038Z,5.10
2019-02-15T02:17:47.467Z,4.37
2019-02-15T02:20:29.171Z,4.42
2019-02-15T02:23:10.868Z,4.55
2019-02-15T02:26:00.241Z,3.90
2019-02-15T02:28:38.566Z,4.62
2019-02-15T02:31:26.485Z,5.33
2019-02-15T02:34:07.470Z,5.75
2019-02-15T02:37:00.112Z,5.28
2019-02-15T02:39:39.245Z,5.35
2019-02-15T02:42:22.374Z,4.80
2019-02-15T02:45:04.784Z,5.08
2019-02-15T02:47:47.843Z,5.00
2019-02-15T02:50:29.547Z,4.60
2019-02-15T02:53:11.975Z,5.12
2019-02-15T02:55:53.696Z,4.90
2019-02-15T02:58:35.791Z,5.08
2019-02-15T03:01:17.767Z,4.97
2019-02-15T03:03:58.052Z,5.78
2019-02-15T03:06:43.979Z,5.40
2019-02-15T03:09:22.182Z,6.50
2019-02-15T03:12:02.485Z,5.60
2019-02-15T03:14:44.183Z,5.45
2019-02-15T03:17:27.283Z,5.25
2019-02-15T03:22:58.341Z,6.15
2019-02-15T03:25:41.230Z,5.85
2019-02-15T03:28:23.185Z,5.67
2019-02-15T03:31:04.499Z,5.60
2019-02-15T03:33:45.857Z,6.25
2019-02-15T03:36:47.160Z,6.60
2019-02-15T03:39:28.869Z,6.95
2019-02-15T03:42:07.790Z,6.42
2019-02-15T03:44:45.669Z,6.08
2019-02-15T03:47:26.290Z,6.42
2019-02-15T03:50:14.224Z,6.75
2019-02-15T03:52:51.844Z,5.50
2019-02-15T03:55:34.861Z,5.62
2019-02-15T03:58:16.553Z,5.60
2019-02-15T04:01:00.707Z,6.30
2019-02-15T04:03:39.274Z,6.05
2019-02-15T04:06:21.663Z,7.50
2019-02-15T04:09:05.240Z,6.10
2019-02-15T04:11:44.397Z,7.15
2019-02-15T04:14:32.559Z,6.10
2019-02-15T04:17:12.535Z,6.25
2019-02-15T04:19:55.346Z,6.45
2019-02-15T04:22:33.273Z,6.53
2019-02-15T04:25:19.245Z,6.75
2019-02-15T04:28:01.602Z,6.33
2019-02-15T04:30:46.804Z,7.28
2019-02-15T04:33:29.206Z,5.60
2019-02-15T04:36:09.111Z,6.25
2019-02-15T04:38:50.474Z,6.55
2019-02-15T04:41:37.809Z,7.50
2019-02-15T04:44:18.808Z,6.45
2019-02-15T04:46:57.682Z,5.75
2019-02-15T04:49:44.975Z,5.95
2019-02-15T04:52:26.685Z,6.60
2019-02-15T04:55:03.482Z,6.75
2019-02-15T04:57:46.583Z,5.47
2019-02-15T05:00:31.130Z,6.35
2019-02-15T05:03:13.485Z,7.37
2019-02-15T05:05:52.368Z,6.03
2019-02-15T05:08:36.488Z,6.37
2019-02-15T05:11:19.148Z,6.55
2019-02-15T05:13:58.915Z,7.08
2019-02-15T05:16:44.088Z,6.08
2019-02-15T05:19:22.319Z,6.25
2019-02-15T05:22:01.917Z,6.97
2019-02-15T05:24:41.519Z,6.22
2019-02-15T05:27:23.304Z,6.53
2019-02-15T05:30:04.713Z,6.65
2019-02-15T05:32:46.604Z,6.62
2019-02-15T05:35:29.696Z,6.30
2019-02-15T05:38:11.167Z,6.08
2019-02-15T05:40:52.182Z,6.80
2019-02-15T05:43:29.996Z,6.60
2019-02-15T05:46:13.724Z,6.80
2019-02-15T05:48:54.725Z,6.20
2019-02-15T05:51:38.852Z,7.05
2019-02-15T05:54:27.097Z,6.55
2019-02-15T05:57:09.545Z,5.37
2019-02-15T05:59:53.430Z,7.22
2019-02-15T06:02:38.010Z,5.05
2019-02-15T06:05:20.072Z,6.83
2019-02-15T06:08:00.419Z,6.10
2019-02-15T06:10:42.639Z,5.47
2019-02-15T06:13:20.972Z,5.42
2019-02-15T06:15:58.783Z,6.05
2019-02-15T06:18:39.811Z,5.33
2019-02-15T06:21:20.704Z,5.45
2019-02-15T06:24:01.705Z,6.30
2019-02-15T06:26:43.282Z,6.25
2019-02-15T06:29:25.132Z,6.28
2019-02-15T06:32:08.906Z,6.75
2019-02-15T06:34:53.275Z,6.20
2019-02-15T06:37:31.088Z,6.30
2019-02-15T06:40:14.760Z,5.85
2019-02-15T06:42:51.536Z,6.65
2019-02-15T06:45:33.416Z,7.17
2019-02-15T06:48:13.858Z,6.60
2019-02-15T06:50:54.630Z,6.80
2019-02-15T06:53:40.279Z,7.60
2019-02-15T06:56:22.106Z,8.75
2019-02-15T06:59:10.839Z,9.35
2019-02-15T07:01:53.939Z,8.68
2019-02-15T07:04:49.245Z,7.72
2019-02-15T07:07:30.608Z,8.45
2019-02-15T07:10:13.713Z,7.83
2019-02-15T07:13:03.842Z,8.48
2019-02-15T07:15:42.403Z,8.38
2019-02-15T07:18:23.045Z,9.35
2019-02-15T07:21:04.716Z,8.43
2019-02-15T07:23:45.019Z,9.40
2019-02-15T07:26:24.619Z,9.58
2019-02-15T07:29:09.487Z,9.55
2019-02-15T07:31:54.264Z,10.25
2019-02-15T07:34:36.048Z,9.70
2019-02-15T07:37:20.516Z,10.03
2019-02-15T07:39:59.451Z,9.95
2019-02-15T07:42:38.348Z,8.45
2019-02-15T07:45:17.868Z,8.30
2019-02-15T07:47:59.650Z,8.65
2019-02-15T07:50:39.928Z,8.78
2019-02-15T07:53:20.223Z,8.38
2019-02-15T07:56:02.227Z,8.73
2019-02-15T07:58:43.990Z,10.15
2019-02-15T08:01:23.253Z,9.33
2019-02-15T08:04:07.734Z,8.45
2019-02-15T08:06:56.736Z,8.45
2019-02-15T08:09:38.156Z,7.95
2019-02-15T08:12:20.559Z,9.30
2019-02-15T08:15:11.358Z,8.43
2019-02-15T08:17:52.330Z,9.60
2019-02-15T08:20:35.115Z,9.00
2019-02-15T08:23:13.632Z,8.70
2019-02-15T08:26:01.119Z,9.60
2019-02-15T08:28:46.164Z,8.78
2019-02-15T08:31:25.049Z,8.98
2019-02-15T08:34:06.730Z,10.50
2019-02-15T08:36:52.183Z,8.85
2019-02-15T08:39:30.832Z,8.78
2019-02-15T08:42:10.507Z,8.80
2019-02-15T08:44:57.065Z,8.58
2019-02-15T08:47:35.967Z,8.60
2019-02-15T08:50:23.932Z,9.25
2019-02-15T08:53:03.431Z,8.28
2019-02-15T08:55:45.918Z,8.85
2019-02-15T08:58:29.101Z,9.45
2019-02-15T09:01:12.012Z,9.80
2019-02-15T09:03:50.085Z,8.35
2019-02-15T09:06:33.442Z,7.85
2019-02-15T09:09:22.848Z,8.25
2019-02-15T09:12:05.272Z,8.48
2019-02-15T09:14:46.413Z,8.50
2019-02-15T09:17:25.140Z,7.33
2019-02-15T09:20:08.367Z,8.25
2019-02-15T09:22:50.677Z,6.95
2019-02-15T09:25:33.080Z,8.18
2019-02-15T09:28:30.177Z,8.38
2019-02-15T09:31:13.977Z,8.53
2019-02-15T09:33:53.580Z,8.05
2019-02-15T09:36:39.437Z,7.08
2019-02-15T09:39:17.004Z,8.48
2019-02-15T09:41:56.647Z,7.08
2019-02-15T09:44:40.385Z,8.58
2019-02-15T09:47:16.482Z,7.22
2019-02-15T09:50:00.333Z,8.55
2019-02-15T09:52:47.024Z,7.75
2019-02-15T09:55:29.987Z,9.20
2019-02-15T09:58:13.088Z,9.00
2019-02-15T10:00:57.558Z,8.63
2019-02-15T10:03:36.412Z,8.65
2019-02-15T10:06:19.084Z,8.90
2019-02-15T10:09:00.556Z,7.15
2019-02-15T10:11:40.889Z,8.13
2019-02-15T10:14:19.105Z,7.83
2019-02-15T10:17:04.453Z,8.45
2019-02-15T10:19:45.008Z,7.53
2019-02-15T10:22:21.392Z,8.33
2019-02-15T10:25:03.095Z,9.33
2019-02-15T10:27:51.095Z,8.48
2019-02-15T10:30:27.170Z,8.93
2019-02-15T10:33:13.133Z,9.48
2019-02-15T10:35:54.796Z,8.60
2019-02-15T10:38:36.985Z,8.45
2019-02-15T10:41:13.494Z,8.30
2019-02-15T10:43:54.891Z,8.75
2019-02-15T10:46:37.926Z,9.38
2019-02-15T10:49:18.515Z,10.15
2019-02-15T10:51:56.473Z,9.10
2019-02-15T10:54:41.074Z,9.40
2019-02-15T10:57:20.707Z,9.08
2019-02-15T11:00:00.317Z,9.05
2019-02-15T11:02:39.904Z,8.68
2019-02-15T11:05:24.862Z,8.70
2019-02-15T11:08:03.281Z,8.73
2019-02-15T11:10:52.707Z,9.40
2019-02-15T11:13:35.110Z,8.40
2019-02-15T11:16:10.616Z,9.05
2019-02-15T11:18:49.383Z,8.73
2019-02-15T11:21:33.883Z,9.93
2019-02-15T11:24:18.031Z,9.28
2019-02-15T11:27:02.657Z,9.48
2019-02-15T11:29:44.591Z,8.65
2019-02-15T11:32:30.468Z,9.05
2019-02-15T11:35:15.717Z,10.23
2019-02-15T11:37:54.617Z,10.03
2019-02-15T11:40:42.567Z,10.18
2019-02-15T11:43:22.217Z,9.43
2019-02-15T11:46:04.014Z,9.83
2019-02-15T11:48:46.292Z,8.40
2019-02-15T11:51:35.721Z,9.38
2019-02-15T11:54:23.315Z,9.10
2019-02-15T11:56:59.094Z,9.00
2019-02-15T11:59:43.168Z,9.43
2019-02-15T12:02:26.054Z,8.95
2019-02-15T12:05:06.388Z,9.10
2019-02-15T12:07:47.327Z,9.30
2019-02-15T12:10:29.002Z,7.50
2019-02-15T12:13:19.640Z,8.93
2019-02-15T12:16:05.031Z,8.95
2019-02-15T12:18:47.429Z,8.05
2019-02-15T12:21:31.231Z,9.05
2019-02-15T12:24:15.443Z,8.85
2019-02-15T12:26:56.732Z,7.90
2019-02-15T12:29:38.434Z,9.60
2019-02-15T12:32:24.583Z,10.65
2019-02-15T12:35:08.791Z,8.00
2019-02-15T12:37:52.849Z,8.70
2019-02-15T12:40:37.367Z,8.65
2019-02-15T12:43:19.286Z,8.60
2019-02-15T12:46:01.910Z,9.65
2019-02-15T12:48:40.142Z,9.00
2019-02-15T12:51:26.710Z,8.50
2019-02-15T12:54:16.844Z,9.18
2019-02-15T12:56:58.514Z,9.20
2019-02-15T12:59:45.170Z,9.15
2019-02-15T13:02:27.513Z,9.68
2019-02-15T13:05:11.023Z,9.20
2019-02-15T13:07:51.654Z,8.85
2019-02-15T13:10:34.719Z,9.35
2019-02-15T13:13:15.479Z,8.95
2019-02-15T13:16:02.321Z,9.38
2019-02-15T13:18:37.123Z,9.30
2019-02-15T13:21:18.023Z,8.40
2019-02-15T13:24:02.603Z,8.20
2019-02-15T13:26:50.067Z,7.97
2019-02-15T13:29:28.851Z,7.40
2019-02-15T13:32:11.983Z,7.87
2019-02-15T13:34:52.827Z,7.90
2019-02-15T13:37:45.757Z,7.25
2019-02-15T13:40:24.696Z,7.83
2019-02-15T13:43:04.226Z,7.58
2019-02-15T13:45:42.431Z,8.10
2019-02-15T13:48:26.262Z,8.93
2019-02-15T13:51:05.864Z,8.80
2019-02-15T13:53:46.938Z,8.68
2019-02-15T13:56:28.533Z,7.92
2019-02-15T13:59:10.263Z,9.80
2019-02-15T14:01:49.165Z,9.68
2019-02-15T14:04:28.185Z,8.50
2019-02-15T14:07:10.186Z,10.08
2019-02-15T14:09:57.035Z,9.90
2019-02-15T14:12:37.416Z,8.40
2019-02-15T14:15:23.345Z,9.58
2019-02-15T14:18:05.669Z,8.93
2019-02-15T14:20:45.271Z,9.93
2019-02-15T14:23:25.544Z,9.85
2019-02-15T14:26:08.675Z,9.40
2019-02-15T14:28:58.085Z,11.03
2019-02-15T14:31:40.441Z,9.25
2019-02-15T14:34:18.674Z,9.35
2019-02-15T14:36:58.243Z,9.93
2019-02-15T14:39:34.242Z,9.55
2019-02-15T14:42:16.745Z,9.90
2019-02-15T14:44:59.878Z,8.93
2019-02-15T14:47:40.178Z,10.45
2019-02-15T14:50:19.079Z,9.18
2019-02-15T14:53:01.451Z,9.35
2019-02-15T14:55:42.995Z,8.90
2019-02-15T14:58:23.481Z,7.65
2019-02-15T15:01:05.882Z,8.40
2019-02-15T15:03:49.530Z,8.85
2019-02-15T15:06:30.536Z,8.05
2019-02-15T15:09:10.985Z,9.38
2019-02-15T15:11:52.803Z,7.95
2019-02-15T15:14:34.714Z,7.70
2019-02-15T15:17:16.786Z,7.10
2019-02-15T15:20:03.918Z,7.50
2019-02-15T15:22:40.179Z,6.45
2019-02-15T15:25:22.561Z,7.35
2019-02-15T15:28:07.057Z,7.47
2019-02-15T15:30:46.690Z,7.67
2019-02-15T15:33:26.291Z,6.78
2019-02-15T15:36:10.064Z,7.15
2019-02-15T15:38:51.160Z,8.15
2019-02-15T15:41:33.462Z,8.33
2019-02-15T15:44:19.366Z,7.25
2019-02-15T15:46:55.697Z,7.62
2019-02-15T15:49:37.913Z,6.15
2019-02-15T15:52:21.668Z,6.67
2019-02-15T15:55:02.699Z,6.42
2019-02-15T15:57:43.099Z,6.67
2019-02-15T16:00:27.499Z,5.95
2019-02-15T16:03:06.943Z,6.20
2019-02-15T16:05:46.674Z,6.22
2019-02-15T16:08:26.969Z,6.53
2019-02-15T16:11:05.870Z,6.47
2019-02-15T16:13:45.523Z,5.97
2019-02-15T16:16:25.804Z,5.22
2019-02-15T16:19:04.704Z,5.78
2019-02-15T16:21:44.577Z,6.37
2019-02-15T16:24:28.357Z,5.83
2019-02-15T16:27:12.460Z,5.87
2019-02-15T16:29:54.345Z,6.05
2019-02-15T16:32:30.407Z,5.55
2019-02-15T16:35:10.696Z,5.60
2019-02-15T16:37:56.620Z,4.90
2019-02-15T16:40:37.566Z,6.08
2019-02-15T16:43:28.383Z,6.22
2019-02-15T16:46:09.239Z,5.55
2019-02-15T16:48:53.212Z,5.50
2019-02-15T16:51:32.080Z,4.78
2019-02-15T16:54:13.089Z,5.08
2019-02-15T16:57:01.747Z,6.10
2019-02-15T16:59:41.552Z,5.30
2019-02-15T17:02:20.607Z,4.75
2019-02-15T17:04:59.342Z,6.03
2019-02-15T17:07:38.880Z,5.47
2019-02-15T17:10:20.493Z,4.78
2019-02-15T17:13:03.183Z,4.70
2019-02-15T17:15:42.818Z,5.15
2019-02-15T17:18:24.679Z,5.17
2019-02-15T17:21:05.893Z,5.03
2019-02-15T17:23:48.041Z,5.20
2019-02-15T17:26:25.761Z,4.50
2019-02-15T17:29:10.033Z,6.60
2019-02-15T17:31:51.292Z,5.87
2019-02-15T17:34:28.825Z,5.47
2019-02-15T17:37:14.597Z,4.97
2019-02-15T17:39:59.197Z,5.67
2019-02-15T17:42:42.068Z,4.80
2019-02-15T17:45:21.504Z,6.20
2019-02-15T17:48:01.528Z,5.40
2019-02-15T17:50:45.381Z,6.30
2019-02-15T17:53:27.701Z,6.22
2019-02-15T17:56:05.933Z,6.40
2019-02-15T17:58:48.303Z,5.35
2019-02-15T18:01:28.631Z,5.70
2019-02-15T18:04:07.218Z,7.25
2019-02-15T18:06:47.609Z,5.80
2019-02-15T18:09:29.107Z,6.50
2019-02-15T18:12:07.127Z,6.20
2019-02-15T18:14:50.980Z,6.70
2019-02-15T18:17:37.148Z,7.35
2019-02-15T18:20:18.070Z,6.45
2019-02-15T18:22:59.438Z,6.78
2019-02-15T18:25:39.038Z,6.20
2019-02-15T18:28:26.191Z,7.37
2019-02-15T18:31:07.340Z,6.65
2019-02-15T18:33:55.356Z,7.33
2019-02-15T18:36:36.092Z,6.33
2019-02-15T18:39:20.842Z,7.12
2019-02-15T18:41:59.095Z,6.53
2019-02-15T18:44:37.706Z,7.58
2019-02-15T18:47:24.544Z,7.25
2019-02-15T18:50:07.185Z,7.97
2019-02-15T18:52:50.045Z,6.53
2019-02-15T18:55:30.367Z,7.10
2019-02-15T18:58:09.921Z,6.80
2019-02-15T19:00:48.819Z,6.62
2019-02-15T19:03:34.765Z,7.45
2019-02-15T19:06:15.787Z,7.03
2019-02-15T19:08:53.249Z,6.47
2019-02-15T19:11:34.509Z,7.45
2019-02-15T19:14:12.454Z,7.58
2019-02-15T19:16:51.908Z,6.85
2019-02-15T19:19:30.997Z,7.83
2019-02-15T19:22:11.221Z,7.62
2019-02-15T19:24:56.422Z,8.00
2019-02-15T19:27:32.642Z,7.05
2019-02-15T19:30:24.055Z,8.48
2019-02-15T19:33:07.824Z,8.30
2019-02-15T19:35:48.211Z,7.80
2019-02-15T19:38:33.325Z,7.53
2019-02-15T19:41:12.259Z,8.03
2019-02-15T19:43:54.658Z,8.13
2019-02-15T19:46:37.060Z,10.10
2019-02-15T19:49:16.623Z,8.28
2019-02-15T19:51:58.168Z,9.93
2019-02-15T19:54:39.649Z,9.38
2019-02-15T19:57:26.393Z,9.35
2019-02-15T20:00:04.163Z,8.75
2019-02-15T20:02:47.122Z,9.30
2019-02-15T20:05:26.132Z,9.83
2019-02-15T20:08:07.866Z,9.00
2019-02-15T20:10:49.566Z,10.13
2019-02-15T20:13:31.733Z,8.73
2019-02-15T20:16:12.651Z,8.78
2019-02-15T20:18:58.536Z,14.80
2019-02-15T20:21:41.241Z,11.90
2019-02-15T20:24:20.837Z,10.98
2019-02-15T20:27:03.270Z,15.08
2019-02-15T20:29:49.270Z,10.82
2019-02-15T20:32:26.643Z,10.72
2019-02-15T20:35:07.649Z,12.47
2019-02-15T20:37:53.710Z,12.75
2019-02-15T20:40:35.878Z,10.23
2019-02-15T20:43:16.242Z,12.35
2019-02-15T20:45:53.820Z,10.18
2019-02-15T20:48:38.977Z,11.97
2019-02-15T20:51:20.676Z,12.73
2019-02-15T20:54:06.548Z,12.47
2019-02-15T20:56:48.343Z,12.50
2019-02-15T20:59:29.250Z,14.00
2019-02-15T21:02:08.880Z,13.62
2019-02-15T21:04:50.445Z,11.30
2019-02-15T21:07:42.782Z,10.80
2019-02-15T21:10:23.268Z,10.23
2019-02-15T21:13:06.685Z,11.75
2019-02-15T21:15:46.532Z,10.43
2019-02-15T21:18:26.890Z,11.20
2019-02-15T21:21:11.984Z,10.05
2019-02-15T21:23:49.066Z,11.12
2019-02-15T21:26:29.075Z,10.50
2019-02-15T21:29:06.686Z,10.65
2019-02-15T21:31:48.963Z,13.60
2019-02-15T21:34:29.987Z,11.15
2019-02-15T21:37:10.965Z,9.45
2019-02-15T21:39:53.065Z,11.05
2019-02-15T21:42:36.571Z,11.10
2019-02-15T21:45:18.162Z,10.75
2019-02-15T21:47:57.599Z,13.65
2019-02-15T21:50:38.065Z,14.15
2019-02-15T21:53:18.843Z,13.90
2019-02-15T21:55:55.950Z,13.43
2019-02-15T21:58:37.566Z,11.50
2019-02-15T22:01:24.197Z,11.12
2019-02-15T22:04:04.547Z,11.15
2019-02-15T22:06:51.768Z,13.03
2019-02-15T22:09:36.270Z,11.40
2019-02-15T22:12:20.099Z,11.28
2019-02-15T22:15:03.119Z,11.88
2019-02-15T22:17:47.759Z,11.40
2019-02-15T22:20:30.881Z,10.35
2019-02-15T22:23:10.401Z,9.20
2019-02-15T22:25:51.323Z,11.38
2019-02-15T22:28:32.402Z,9.68
2019-02-15T22:31:15.427Z,9.10
2019-02-15T22:33:59.972Z,10.32
2019-02-15T22:36:45.951Z,10.38
2019-02-15T22:39:27.840Z,11.85
2019-02-15T22:42:11.281Z,13.80
2019-02-15T22:44:53.477Z,10.70
2019-02-15T22:47:30.575Z,9.90
2019-02-15T22:50:13.683Z,16.70
2019-02-15T22:52:55.531Z,12.70
2019-02-15T22:55:37.108Z,11.35
2019-02-15T22:58:22.309Z,12.55
2019-02-15T23:01:15.210Z,17.25
2019-02-15T23:03:58.284Z,17.95
2019-02-15T23:06:44.016Z,19.07
2019-02-15T23:09:28.940Z,22.50
2019-02-15T23:12:11.784Z,21.27
2019-02-15T23:14:52.087Z,17.90
2019-02-15T23:17:32.417Z,18.73
2019-02-15T23:20:12.715Z,19.00
2019-02-15T23:22:52.317Z,16.90
2019-02-15T23:25:32.620Z,17.30
2019-02-15T23:28:10.936Z,17.42
2019-02-15T23:30:56.726Z,16.65
2019-02-15T23:33:41.322Z,17.00
2019-02-15T23:36:21.487Z,14.33
2019-02-15T23:39:01.119Z,12.65
2019-02-15T23:41:44.256Z,10.65
2019-02-15T23:44:25.921Z,12.65
2019-02-15T23:47:08.246Z,12.30
2019-02-15T23:49:51.474Z,13.00
2019-02-15T23:52:33.684Z,11.20
2019-02-15T23:55:15.497Z,9.70
2019-02-15T23:57:57.926Z,9.23
